createdAt,value
2019-01-12T00:01:05.531Z,98.20
2019-01-12T00:03:34.567Z,98.10
2019-01-12T00:06:03.600Z,98.20
2019-01-12T00:08:32.659Z,98.20
2019-01-12T00:11:01.675Z,98.20
2019-01-12T00:13:30.714Z,98.30
2019-01-12T00:15:59.674Z,98.20
2019-01-12T00:18:28.746Z,98.30
2019-01-12T00:20:57.779Z,98.30
2019-01-12T00:23:26.835Z,98.30
2019-01-12T00:25:55.816Z,98.20
2019-01-12T00:28:24.876Z,98.20
2019-01-12T00:30:55.587Z,98.20
2019-01-12T00:33:24.633Z,98.20
2019-01-12T00:35:53.640Z,98.20
2019-01-12T00:38:22.724Z,98.20
2019-01-12T00:40:51.727Z,98.20
2019-01-12T00:43:20.831Z,98.20
2019-01-12T00:45:49.846Z,98.20
2019-01-12T00:48:18.934Z,98.30
2019-01-12T00:50:47.895Z,98.30
2019-01-12T00:53:16.964Z,98.40
2019-01-12T00:55:46.010Z,98.30
2019-01-12T00:58:15.045Z,98.40
2019-01-12T01:00:44.131Z,98.30
2019-01-12T01:03:13.090Z,98.40
2019-01-12T01:05:42.131Z,98.40
2019-01-12T01:08:11.199Z,98.40
2019-01-12T01:10:40.246Z,98.40
2019-01-12T01:13:09.300Z,98.40
2019-01-12T01:15:38.347Z,98.40
2019-01-12T01:18:07.326Z,98.40
2019-01-12T01:20:36.361Z,98.40
2019-01-12T01:23:05.432Z,98.50
2019-01-12T01:25:34.380Z,98.50
2019-01-12T01:28:03.350Z,98.40
2019-01-12T01:30:32.402Z,98.80
2019-01-12T01:33:01.454Z,98.40
2019-01-12T01:35:30.409Z,98.40
2019-01-12T01:37:59.481Z,98.40
2019-01-12T01:40:28.529Z,98.30
2019-01-12T01:42:57.558Z,98.30
2019-01-12T01:45:26.606Z,98.30
2019-01-12T01:47:55.585Z,98.30
2019-01-12T01:50:24.534Z,98.30
2019-01-12T01:52:53.664Z,98.20
2019-01-12T01:55:22.634Z,98.20
2019-01-12T01:57:51.958Z,98.20
2019-01-12T02:00:21.025Z,98.20
2019-01-12T02:02:50.062Z,98.20
2019-01-12T02:05:19.034Z,98.10
2019-01-12T02:07:48.110Z,98.10
2019-01-12T02:10:22.405Z,98.10
2019-01-12T02:12:51.477Z,98.00
2019-01-12T02:15:21.480Z,98.00
2019-01-12T02:17:50.558Z,98.00
2019-01-12T02:20:19.539Z,97.90
2019-01-12T02:22:48.576Z,97.80
2019-01-12T02:25:17.623Z,97.80
2019-01-12T02:27:46.693Z,97.80
2019-01-12T02:30:21.305Z,97.80
2019-01-12T02:32:50.319Z,97.80
2019-01-12T02:35:19.479Z,97.80
2019-01-12T02:37:48.513Z,97.80
2019-01-12T02:40:17.482Z,97.80
2019-01-12T02:42:46.459Z,97.80
2019-01-12T02:45:15.553Z,97.80
2019-01-12T02:47:44.610Z,97.80
2019-01-12T02:50:13.635Z,97.80
2019-01-12T02:52:42.649Z,97.80
2019-01-12T02:55:11.745Z,97.80
2019-01-12T02:57:40.819Z,97.80
2019-01-12T03:00:13.371Z,97.80
2019-01-12T03:02:42.331Z,97.70
2019-01-12T03:05:11.401Z,97.70
2019-01-12T03:07:40.358Z,97.60
2019-01-12T03:10:10.179Z,97.60
2019-01-12T03:12:39.261Z,97.60
2019-01-12T03:15:10.019Z,97.60
2019-01-12T03:17:39.059Z,97.50
2019-01-12T03:20:10.285Z,97.50
2019-01-12T03:22:39.322Z,97.50
2019-01-12T03:25:16.910Z,97.40
2019-01-12T03:27:39.170Z,97.40
2019-01-12T03:30:11.610Z,97.40
2019-01-12T03:32:40.723Z,97.30
2019-01-12T03:35:09.783Z,97.30
2019-01-12T03:37:38.831Z,97.30
2019-01-12T03:40:10.298Z,97.20
2019-01-12T03:42:39.365Z,97.10
2019-01-12T03:45:10.119Z,97.10
2019-01-12T03:47:39.083Z,97.10
2019-01-12T03:50:09.745Z,97.00
2019-01-12T03:52:38.865Z,97.00
2019-01-12T03:55:07.885Z,97.10
2019-01-12T03:57:37.040Z,97.10
2019-01-12T04:00:10.418Z,97.10
2019-01-12T04:02:39.494Z,97.10
2019-01-12T04:05:08.544Z,97.10
2019-01-12T04:07:37.581Z,97.10
2019-01-12T04:10:07.338Z,97.10
2019-01-12T04:12:36.310Z,97.20
2019-01-12T04:15:06.419Z,97.60
2019-01-12T04:17:35.478Z,97.20
2019-01-12T04:20:05.418Z,97.20
2019-01-12T04:22:34.467Z,97.30
2019-01-12T04:25:03.543Z,97.30
2019-01-12T04:27:32.582Z,97.40
2019-01-12T04:30:01.634Z,97.40
2019-01-12T04:32:30.717Z,97.30
2019-01-12T04:34:59.913Z,97.30
2019-01-12T04:37:28.887Z,97.30
2019-01-12T04:39:57.974Z,97.10
2019-01-12T04:42:27.007Z,97.20
2019-01-12T04:44:55.962Z,97.00
2019-01-12T04:47:24.947Z,96.90
2019-01-12T04:49:54.000Z,96.70
2019-01-12T04:52:23.039Z,96.60
2019-01-12T04:54:52.043Z,96.50
2019-01-12T04:57:21.070Z,96.40
2019-01-12T04:59:50.118Z,96.30
2019-01-12T05:02:19.182Z,96.40
2019-01-12T05:04:48.217Z,96.00
2019-01-12T05:07:17.278Z,95.70
2019-01-12T05:09:46.363Z,95.30
2019-01-12T05:12:15.419Z,95.20
2019-01-12T05:14:44.458Z,95.10
2019-01-12T05:17:13.487Z,95.50
2019-01-12T05:19:42.466Z,95.10
2019-01-12T05:22:11.551Z,95.10
2019-01-12T05:24:40.558Z,95.10
2019-01-12T05:27:09.598Z,95.10
2019-01-12T05:29:38.714Z,95.00
2019-01-12T05:32:07.955Z,95.00
2019-01-12T05:34:36.999Z,94.80
2019-01-12T05:37:05.958Z,94.80
2019-01-12T05:39:34.954Z,94.90
2019-01-12T05:42:03.918Z,94.80
2019-01-12T05:44:32.962Z,94.80
2019-01-12T05:47:02.026Z,94.80
2019-01-12T05:49:31.065Z,94.70
2019-01-12T05:52:00.102Z,94.80
2019-01-12T05:54:29.167Z,94.70
2019-01-12T05:56:58.209Z,94.60
2019-01-12T05:59:27.234Z,94.70
2019-01-12T06:01:56.313Z,94.70
2019-01-12T06:04:25.292Z,94.70
2019-01-12T06:06:54.260Z,94.70
2019-01-12T06:09:23.320Z,94.80
2019-01-12T06:11:52.274Z,94.80
2019-01-12T06:14:21.278Z,94.70
2019-01-12T06:16:50.242Z,94.70
2019-01-12T06:19:19.279Z,94.70
2019-01-12T06:21:48.262Z,94.70
2019-01-12T06:24:17.294Z,94.70
2019-01-12T06:26:46.334Z,94.40
2019-01-12T06:29:15.337Z,94.50
2019-01-12T06:31:44.379Z,94.60
2019-01-12T06:34:13.358Z,94.40
2019-01-12T06:36:42.366Z,94.30
2019-01-12T06:39:11.375Z,94.20
2019-01-12T06:41:40.385Z,94.10
2019-01-12T06:44:09.363Z,94.10
2019-01-12T06:46:38.376Z,94.00
2019-01-12T06:49:07.415Z,94.10
2019-01-12T06:51:36.393Z,94.00
2019-01-12T06:54:05.506Z,94.10
2019-01-12T06:56:34.562Z,94.30
2019-01-12T06:59:03.527Z,94.10
2019-01-12T07:01:32.526Z,94.10
2019-01-12T07:04:01.581Z,94.20
2019-01-12T07:06:30.531Z,94.30
2019-01-12T07:08:59.610Z,94.30
2019-01-12T07:11:28.654Z,94.40
2019-01-12T07:13:57.635Z,94.40
2019-01-12T07:16:26.693Z,94.50
2019-01-12T07:18:55.809Z,94.50
2019-01-12T07:21:24.852Z,94.50
2019-01-12T07:23:53.926Z,94.50
2019-01-12T07:26:22.906Z,94.50
2019-01-12T07:28:51.946Z,94.50
2019-01-12T07:31:21.022Z,94.60
2019-01-12T07:34:09.238Z,94.50
2019-01-12T07:36:38.239Z,94.40
2019-01-12T07:39:08.236Z,94.50
2019-01-12T07:41:37.330Z,94.40
2019-01-12T07:44:06.398Z,94.40
2019-01-12T07:46:35.433Z,94.80
2019-01-12T07:49:04.486Z,94.40
2019-01-12T07:51:33.479Z,94.50
2019-01-12T07:54:02.518Z,94.40
2019-01-12T07:56:31.549Z,94.50
2019-01-12T07:59:00.549Z,94.50
2019-01-12T08:01:29.509Z,94.50
2019-01-12T08:03:58.574Z,94.50
2019-01-12T08:06:27.646Z,94.60
2019-01-12T08:08:56.705Z,94.70
2019-01-12T08:11:25.767Z,94.70
2019-01-12T08:13:54.833Z,94.80
2019-01-12T08:16:23.830Z,94.60
2019-01-12T08:18:52.887Z,95.00
2019-01-12T08:21:21.914Z,95.10
2019-01-12T08:23:50.978Z,95.10
2019-01-12T08:26:19.946Z,95.10
2019-01-12T08:28:49.074Z,95.20
2019-01-12T08:31:18.052Z,95.20
2019-01-12T08:33:47.118Z,95.20
2019-01-12T08:36:16.114Z,95.30
2019-01-12T08:38:45.169Z,95.40
2019-01-12T08:41:14.233Z,95.40
2019-01-12T08:43:43.334Z,95.40
2019-01-12T08:46:12.304Z,95.60
2019-01-12T08:48:41.361Z,95.60
2019-01-12T08:51:10.478Z,95.60
2019-01-12T08:53:39.522Z,95.60
2019-01-12T08:56:08.566Z,95.60
2019-01-12T08:58:37.570Z,95.60
2019-01-12T09:01:08.211Z,95.60
2019-01-12T09:03:37.256Z,95.60
2019-01-12T09:06:06.362Z,95.60
2019-01-12T09:08:54.633Z,95.60
2019-01-12T09:11:23.785Z,95.60
2019-01-12T09:13:52.818Z,95.60
2019-01-12T09:16:21.862Z,95.60
2019-01-12T09:18:50.951Z,95.70
2019-01-12T09:21:19.998Z,95.50
2019-01-12T09:23:49.094Z,95.70
2019-01-12T09:26:18.303Z,95.90
2019-01-12T09:28:47.386Z,95.90
2019-01-12T09:31:16.644Z,96.20
2019-01-12T09:33:45.710Z,96.50
2019-01-12T09:36:14.761Z,96.60
2019-01-12T09:38:43.734Z,96.80
2019-01-12T09:41:12.802Z,97.00
2019-01-12T09:43:41.841Z,97.20
2019-01-12T09:46:10.822Z,97.70
2019-01-12T09:48:39.914Z,97.40
2019-01-12T09:51:08.890Z,97.70
2019-01-12T09:53:37.930Z,97.80
2019-01-12T09:56:07.028Z,97.90
2019-01-12T09:58:36.017Z,97.70
2019-01-12T10:01:05.042Z,98.20
2019-01-12T10:03:34.126Z,98.60
2019-01-12T10:06:03.102Z,98.40
2019-01-12T10:08:32.143Z,98.60
2019-01-12T10:11:01.123Z,98.70
2019-01-12T10:13:30.181Z,98.70
2019-01-12T10:15:59.301Z,98.80
2019-01-12T10:18:28.270Z,98.90
2019-01-12T10:20:57.247Z,99.00
2019-01-12T10:23:26.247Z,99.10
2019-01-12T10:25:55.206Z,99.10
2019-01-12T10:28:24.250Z,99.20
2019-01-12T10:30:53.365Z,99.20
2019-01-12T10:33:22.400Z,99.20
2019-01-12T10:35:51.373Z,99.30
2019-01-12T10:38:20.551Z,99.40
2019-01-12T10:40:49.582Z,99.40
2019-01-12T10:43:18.625Z,99.40
2019-01-12T10:45:47.617Z,99.50
2019-01-12T10:48:16.593Z,99.60
2019-01-12T10:50:45.558Z,99.70
2019-01-12T10:53:14.602Z,99.70
2019-01-12T10:55:43.642Z,99.70
2019-01-12T10:58:12.727Z,99.70
2019-01-12T11:00:41.706Z,99.80
2019-01-12T11:03:10.735Z,99.80
2019-01-12T11:05:39.778Z,99.80
2019-01-12T11:08:08.895Z,99.80
2019-01-12T11:10:37.987Z,99.90
2019-01-12T11:13:06.954Z,99.90
2019-01-12T11:15:35.959Z,99.90
2019-01-12T11:18:05.493Z,99.90
2019-01-12T11:20:34.561Z,99.90
2019-01-12T11:23:03.590Z,99.90
2019-01-12T11:25:32.651Z,99.90
2019-01-12T11:28:01.630Z,99.90
2019-01-12T11:30:30.692Z,99.90
2019-01-12T11:32:59.742Z,99.90
2019-01-12T11:35:28.810Z,99.90
2019-01-12T11:37:57.800Z,99.90
2019-01-12T11:40:26.855Z,99.90
2019-01-12T11:42:55.974Z,99.90
2019-01-12T11:45:25.001Z,99.90
2019-01-12T11:47:53.978Z,99.90
2019-01-12T11:50:22.982Z,99.90
2019-01-12T11:52:52.416Z,99.90
2019-01-12T11:55:21.453Z,99.90
2019-01-12T11:57:50.554Z,99.90
2019-01-12T12:00:21.845Z,99.90
2019-01-12T12:02:50.918Z,99.90
2019-01-12T12:05:20.137Z,99.90
2019-01-12T12:07:50.122Z,99.90
2019-01-12T12:10:19.135Z,99.90
2019-01-12T12:12:48.245Z,99.90
2019-01-12T12:15:17.345Z,99.90
2019-01-12T12:17:46.414Z,99.90
2019-01-12T12:20:17.627Z,99.90
2019-01-12T12:22:46.679Z,99.90
2019-01-12T12:25:15.802Z,99.90
2019-01-12T12:27:44.842Z,99.90
2019-01-12T12:30:20.013Z,99.90
2019-01-12T12:32:49.065Z,99.90
2019-01-12T12:35:18.107Z,99.90
2019-01-12T12:37:47.146Z,99.90
2019-01-12T12:40:17.242Z,99.90
2019-01-12T12:42:46.290Z,99.90
2019-01-12T12:45:20.350Z,99.90
2019-01-12T12:47:49.420Z,99.90
2019-01-12T12:50:18.469Z,99.90
2019-01-12T12:52:47.441Z,99.90
2019-01-12T12:55:16.542Z,99.90
2019-01-12T12:57:45.614Z,99.90
2019-01-12T13:00:17.431Z,99.90
2019-01-12T13:02:46.492Z,99.90
2019-01-12T13:05:15.642Z,99.90
2019-01-12T13:07:44.701Z,99.90
2019-01-12T13:10:25.384Z,99.90
2019-01-12T13:12:54.653Z,99.90
2019-01-12T13:15:23.643Z,99.90
2019-01-12T13:17:52.689Z,99.90
2019-01-12T13:20:40.854Z,99.90
2019-01-12T13:23:12.686Z,99.90
2019-01-12T13:25:43.362Z,99.90
2019-01-12T13:28:12.423Z,99.90
2019-01-12T13:30:41.523Z,99.90
2019-01-12T13:33:10.497Z,99.90
2019-01-12T13:35:39.568Z,99.90
2019-01-12T13:38:08.550Z,99.90
2019-01-12T13:40:37.603Z,99.90
2019-01-12T13:43:06.661Z,99.90
2019-01-12T13:45:35.650Z,99.90
2019-01-12T13:48:04.876Z,99.90
2019-01-12T13:50:33.842Z,99.90
2019-01-12T13:53:02.955Z,99.90
2019-01-12T13:55:32.000Z,99.90
2019-01-12T13:58:01.319Z,99.90
2019-01-12T14:00:37.657Z,99.90
2019-01-12T14:03:07.551Z,99.90
2019-01-12T14:05:37.565Z,99.90
2019-01-12T14:08:07.169Z,99.90
2019-01-12T14:10:36.228Z,99.90
2019-01-12T14:13:05.854Z,99.90
2019-01-12T14:15:34.926Z,99.90
2019-01-12T14:18:03.974Z,99.80
2019-01-12T14:20:38.183Z,99.90
2019-01-12T14:23:07.652Z,99.90
2019-01-12T14:25:36.677Z,99.90
2019-01-12T14:28:05.822Z,99.90
2019-01-12T14:30:34.865Z,99.90
2019-01-12T14:33:04.046Z,99.90
2019-01-12T14:35:33.101Z,99.80
2019-01-12T14:38:02.148Z,99.90
2019-01-12T14:40:31.219Z,99.80
2019-01-12T14:43:00.210Z,99.80
2019-01-12T14:45:31.070Z,99.80
2019-01-12T14:48:00.094Z,99.70
2019-01-12T14:50:29.099Z,99.60
2019-01-12T14:52:58.130Z,99.60
2019-01-12T14:55:27.106Z,99.60
2019-01-12T14:58:01.937Z,99.50
2019-01-12T15:00:28.498Z,99.40
2019-01-12T15:02:57.483Z,99.40
2019-01-12T15:05:29.021Z,99.40
2019-01-12T15:07:58.121Z,99.30
2019-01-12T15:10:27.159Z,99.20
2019-01-12T15:12:56.231Z,99.20
2019-01-12T15:15:25.278Z,99.10
2019-01-12T15:17:54.318Z,99.20
2019-01-12T15:20:25.186Z,99.20
2019-01-12T15:22:54.271Z,99.10
2019-01-12T15:25:23.345Z,99.10
2019-01-12T15:27:52.453Z,99.10
2019-01-12T15:30:23.799Z,99.10
2019-01-12T15:32:52.778Z,99.10
2019-01-12T15:35:22.149Z,99.20
2019-01-12T15:37:51.127Z,99.10
2019-01-12T15:40:21.082Z,99.20
2019-01-12T15:42:50.058Z,99.30
2019-01-12T15:45:21.105Z,99.30
2019-01-12T15:47:50.157Z,99.30
2019-01-12T15:50:21.067Z,99.30
2019-01-12T15:52:50.118Z,99.30
2019-01-12T15:55:19.217Z,99.20
2019-01-12T15:57:48.306Z,99.10
2019-01-12T16:00:19.560Z,99.00
2019-01-12T16:02:48.561Z,99.10
2019-01-12T16:05:17.554Z,99.20
2019-01-12T16:07:46.611Z,99.20
2019-01-12T16:10:15.712Z,99.20
2019-01-12T16:12:44.714Z,99.20
2019-01-12T16:15:22.344Z,99.20
2019-01-12T16:17:51.423Z,99.20
2019-01-12T16:20:32.026Z,99.20
2019-01-12T16:23:01.117Z,99.20
2019-01-12T16:25:30.111Z,99.20
2019-01-12T16:27:59.150Z,99.30
2019-01-12T16:30:28.138Z,99.30
2019-01-12T16:32:57.183Z,99.20
2019-01-12T16:35:26.160Z,99.30
2019-01-12T16:37:55.205Z,99.20
2019-01-12T16:40:24.599Z,99.00
2019-01-12T16:42:53.601Z,99.00
2019-01-12T16:45:22.557Z,99.20
2019-01-12T16:47:51.584Z,98.70
2019-01-12T16:50:20.755Z,98.60
2019-01-12T16:52:49.930Z,98.60
2019-01-12T16:55:19.141Z,98.70
2019-01-12T16:57:48.245Z,98.70
2019-01-12T17:00:19.766Z,98.80
2019-01-12T17:02:48.892Z,98.90
2019-01-12T17:05:18.215Z,99.10
2019-01-12T17:07:47.271Z,99.10
2019-01-12T17:10:17.911Z,99.10
2019-01-12T17:12:47.226Z,99.20
2019-01-12T17:15:18.054Z,99.20
2019-01-12T17:17:47.391Z,99.30
2019-01-12T17:20:21.886Z,99.20
2019-01-12T17:22:52.134Z,99.20
2019-01-12T17:25:23.041Z,99.20
2019-01-12T17:27:53.575Z,99.10
2019-01-12T17:30:23.422Z,99.10
2019-01-12T17:32:52.624Z,99.10
2019-01-12T17:35:21.835Z,99.00
2019-01-12T17:37:51.075Z,99.10
2019-01-12T17:40:20.035Z,99.00
2019-01-12T17:42:49.033Z,99.00
2019-01-12T17:45:22.890Z,99.00
2019-01-12T17:47:51.945Z,99.00
2019-01-12T17:50:22.381Z,99.10
2019-01-12T17:52:51.430Z,99.00
2019-01-12T17:55:22.396Z,99.00
2019-01-12T17:57:51.534Z,99.00
2019-01-12T18:00:30.558Z,99.10
2019-01-12T18:02:59.765Z,99.00
2019-01-12T18:05:28.809Z,99.10
2019-01-12T18:07:57.986Z,99.00
2019-01-12T18:10:27.123Z,99.00
2019-01-12T18:12:56.141Z,99.00
2019-01-12T18:15:27.574Z,98.90
2019-01-12T18:17:56.866Z,98.90
2019-01-12T18:20:26.149Z,98.90
2019-01-12T18:22:55.567Z,99.10
2019-01-12T18:25:24.838Z,99.10
2019-01-12T18:27:53.981Z,98.70
2019-01-12T18:30:24.763Z,98.70
2019-01-12T18:32:55.490Z,98.60
2019-01-12T18:35:27.341Z,98.60
2019-01-12T18:37:56.437Z,98.60
2019-01-12T18:40:25.685Z,98.60
2019-01-12T18:42:54.881Z,98.60
2019-01-12T18:45:24.095Z,98.60
2019-01-12T18:47:53.661Z,98.60
2019-01-12T18:50:25.500Z,98.60
2019-01-12T18:52:56.559Z,99.00
2019-01-12T18:55:25.754Z,98.70
2019-01-12T18:58:04.367Z,98.80
2019-01-12T19:00:37.063Z,98.90
2019-01-12T19:03:06.700Z,98.90
2019-01-12T19:05:36.042Z,99.00
2019-01-12T19:08:10.712Z,99.00
2019-01-12T19:10:40.109Z,99.10
2019-01-12T19:13:09.443Z,99.00
2019-01-12T19:15:38.712Z,99.10
2019-01-12T19:18:08.322Z,99.10
2019-01-12T19:20:37.524Z,99.10
2019-01-12T19:23:07.118Z,99.10
2019-01-12T19:25:36.818Z,99.00
2019-01-12T19:28:06.014Z,99.00
2019-01-12T19:30:36.986Z,99.10
2019-01-12T19:33:06.147Z,99.00
2019-01-12T19:35:35.211Z,99.00
2019-01-12T19:38:04.705Z,99.00
2019-01-12T19:40:34.135Z,99.00
2019-01-12T19:43:03.454Z,99.20
2019-01-12T19:45:32.661Z,99.10
2019-01-12T19:48:02.014Z,99.10
2019-01-12T19:50:31.253Z,99.20
2019-01-12T19:53:02.219Z,99.30
2019-01-12T19:55:33.306Z,99.30
2019-01-12T19:58:02.497Z,99.40
2019-01-12T20:00:33.356Z,99.40
2019-01-12T20:03:02.782Z,99.40
2019-01-12T20:05:31.961Z,99.40
2019-01-12T20:08:02.750Z,99.40
2019-01-12T20:10:32.144Z,99.50
2019-01-12T20:13:01.442Z,99.50
2019-01-12T20:15:31.014Z,99.50
2019-01-12T20:18:00.090Z,99.50
2019-01-12T20:20:29.164Z,99.50
2019-01-12T20:22:58.203Z,99.50
2019-01-12T20:25:29.437Z,99.60
2019-01-12T20:28:27.202Z,99.60
2019-01-12T20:31:31.007Z,99.60
2019-01-12T20:34:08.450Z,99.60
2019-01-12T20:37:03.316Z,99.60
2019-01-12T20:40:13.593Z,99.60
2019-01-12T20:43:28.562Z,99.60
2019-01-12T20:46:19.083Z,99.60
2019-01-12T20:49:10.174Z,99.60
2019-01-12T20:52:18.803Z,99.70
2019-01-12T20:55:21.958Z,99.70
2019-01-12T20:58:32.984Z,99.60
2019-01-12T21:01:38.054Z,99.60
2019-01-12T21:04:52.278Z,99.50
2019-01-12T21:08:07.464Z,99.50
2019-01-12T21:11:09.446Z,99.40
2019-01-12T21:14:20.815Z,99.40
2019-01-12T21:16:54.820Z,99.50
2019-01-12T21:19:23.789Z,99.50
2019-01-12T21:21:52.826Z,99.70
2019-01-12T21:24:22.075Z,99.50
2019-01-12T21:26:51.839Z,99.50
2019-01-12T21:29:21.209Z,99.40
2019-01-12T21:31:51.550Z,99.40
2019-01-12T21:34:20.838Z,99.40
2019-01-12T21:36:49.814Z,99.30
2019-01-12T21:39:19.004Z,99.30
2019-01-12T21:41:48.201Z,99.30
2019-01-12T21:44:17.237Z,99.30
2019-01-12T21:46:48.322Z,99.30
2019-01-12T21:49:17.406Z,99.40
2019-01-12T21:51:46.488Z,99.30
2019-01-12T21:54:15.582Z,99.30
2019-01-12T21:56:44.590Z,99.30
2019-01-12T21:59:13.683Z,99.30
2019-01-12T22:01:42.775Z,99.30
2019-01-12T22:04:11.886Z,99.30
2019-01-12T22:06:40.943Z,99.60
2019-01-12T22:09:10.834Z,99.30
2019-01-12T22:11:40.422Z,99.30
2019-01-12T22:14:09.562Z,99.20
2019-01-12T22:16:38.659Z,99.30
2019-01-12T22:19:07.634Z,99.20
2019-01-12T22:21:36.678Z,99.20
2019-01-12T22:24:05.759Z,99.20
2019-01-12T22:26:34.802Z,99.10
2019-01-12T22:29:03.867Z,99.10
2019-01-12T22:31:32.830Z,99.10
2019-01-12T22:34:01.870Z,99.10
2019-01-12T22:36:30.929Z,99.10
2019-01-12T22:38:59.885Z,99.10
2019-01-12T22:41:28.857Z,99.00
2019-01-12T22:43:57.943Z,99.20
2019-01-12T22:46:26.966Z,99.00
2019-01-12T22:48:56.006Z,99.00
2019-01-12T22:51:25.091Z,99.40
2019-01-12T22:53:54.131Z,99.00
2019-01-12T22:56:23.167Z,99.00
2019-01-12T22:58:52.148Z,99.00
2019-01-12T23:01:45.842Z,99.00
2019-01-12T23:04:16.820Z,99.00
2019-01-12T23:06:45.797Z,99.00
2019-01-12T23:09:14.851Z,98.90
2019-01-12T23:11:43.947Z,98.90
2019-01-12T23:14:12.912Z,98.90
2019-01-12T23:16:41.977Z,98.90
2019-01-12T23:19:11.044Z,98.90
2019-01-12T23:21:40.031Z,99.00
2019-01-12T23:24:09.007Z,99.00
2019-01-12T23:26:38.070Z,99.10
2019-01-12T23:29:07.161Z,99.10
2019-01-12T23:31:36.223Z,99.10
2019-01-12T23:34:05.657Z,99.10
2019-01-12T23:36:34.742Z,99.10
2019-01-12T23:39:03.837Z,99.00
2019-01-12T23:41:32.873Z,99.10
2019-01-12T23:44:01.945Z,99.10
2019-01-12T23:46:30.982Z,99.10
2019-01-12T23:49:00.030Z,99.10
2019-01-12T23:51:29.097Z,99.10
2019-01-12T23:53:58.146Z,99.10
2019-01-12T23:56:27.118Z,99.10
2019-01-12T23:58:56.121Z,99.20
